Language: 


Des rapports , des résumés tant et plus, au choix de chacun....


Données Historiques de Météogheer
Journalier Rapport pour Février 22, 2017 Unitée:  Les deux    Impériale   Métrique
Suivant Jour »
Journalier Hebdomadaire Mensuel Annuel Sur mesure
  Max: Min: Moyenne:
Température: 52.5 °F /  11.4 °C 49.8 °F /  9.9 °C 51.1 °F /  10.6 °C
Point de rosée: 51.1 °F /  10.6 °C 48.4 °F /  9.1 °C 49.6 °F /  9.8 °C
Humidité: 96% 92% 95%
Vent: 30.9mph /  49.7km/h - 19.1mph /  30.8km/h
Rafales: 34.7mph /  55.8km/h - -
Vent- - WSW
Pression: 29.9 in /  1013.1 hPa 29.7 in /  1007.0 hPa -
Pluie: 0 in /  0.0 mm    
Historical Graphs
 
 
Données tabulaires pour Février 22, 2017
Heure Température Point de rosée Pression Vent Vent Rafales Humidité Pluie Taux (Horaire) Conditions
00:04 50.4 °F /  10.2 °C 48.9 °F /  9.4 °C 29.9in /  1013.1hPa WSW 20.8mph /  33.5km/h 27.1mph /  43.6km/h 95% 0in /  0.0mm
00:09 50.4 °F /  10.2 °C 48.9 °F /  9.4 °C 29.9in /  1013.1hPa WSW 17.4mph /  28.0km/h 25.1mph /  40.4km/h 95% 0in /  0.0mm
00:14 50.2 °F /  10.1 °C 48.7 °F /  9.3 °C 29.9in /  1013.1hPa WNW 14.8mph /  23.8km/h 25.1mph /  40.4km/h 95% 0in /  0.0mm
00:19 50.2 °F /  10.1 °C 48.7 °F /  9.3 °C 29.9in /  1013.1hPa WSW 22.1mph /  35.6km/h 22.1mph /  35.6km/h 95% 0in /  0.0mm
00:24 50.2 °F /  10.1 °C 48.7 °F /  9.3 °C 29.9in /  1013.1hPa West 13.4mph /  21.6km/h 22.1mph /  35.6km/h 95% 0in /  0.0mm
00:29 50.2 °F /  10.1 °C 48.7 °F /  9.3 °C 29.9in /  1013.1hPa WSW 20.4mph /  32.8km/h 20.4mph /  32.8km/h 95% 0in /  0.0mm
00:34 50.2 °F /  10.1 °C 48.7 °F /  9.3 °C 29.9in /  1013.1hPa WSW 18.1mph /  29.1km/h 20.6mph /  33.1km/h 95% 0in /  0.0mm
00:39 50.2 °F /  10.1 °C 48.7 °F /  9.3 °C 29.9in /  1013.1hPa West 19.7mph /  31.7km/h 27.1mph /  43.6km/h 95% 0in /  0.0mm
00:44 50 °F /  10.0 °C 48.6 °F /  9.2 °C 29.9in /  1013.1hPa WSW 17.9mph /  28.8km/h 27.1mph /  43.6km/h 95% 0in /  0.0mm
00:49 50 °F /  10.0 °C 48.6 °F /  9.2 °C 29.9in /  1013.1hPa WSW 19.9mph /  32.0km/h 21mph /  33.8km/h 95% 0in /  0.0mm
00:54 50 °F /  10.0 °C 48.6 °F /  9.2 °C 29.9in /  1013.1hPa West 19.7mph /  31.7km/h 22.6mph /  36.4km/h 95% 0in /  0.0mm
00:59 50 °F /  10.0 °C 48.6 °F /  9.2 °C 29.9in /  1013.1hPa WSW 20.1mph /  32.3km/h 23.5mph /  37.8km/h 95% 0in /  0.0mm
01:04 50 °F /  10.0 °C 48.6 °F /  9.2 °C 29.9in /  1013.1hPa WSW 17.9mph /  28.8km/h 23.5mph /  37.8km/h 95% 0in /  0.0mm
01:09 50 °F /  10.0 °C 48.6 °F /  9.2 °C 29.9in /  1013.1hPa WSW 15.2mph /  24.5km/h 21.3mph /  34.3km/h 95% 0in /  0.0mm
01:14 49.8 °F /  9.9 °C 48.4 °F /  9.1 °C 29.9in /  1013.1hPa WSW 19.9mph /  32.0km/h 22.1mph /  35.6km/h 95% 0in /  0.0mm
01:19 49.8 °F /  9.9 °C 48.4 °F /  9.1 °C 29.9in /  1013.1hPa WSW 17.7mph /  28.5km/h 22.1mph /  35.6km/h 95% 0in /  0.0mm
01:24 49.8 °F /  9.9 °C 48.4 °F /  9.1 °C 29.9in /  1013.1hPa WSW 17.2mph /  27.7km/h 19.2mph /  30.9km/h 95% 0in /  0.0mm
01:29 49.8 °F /  9.9 °C 48.4 °F /  9.1 °C 29.9in /  1013.1hPa WSW 20.1mph /  32.3km/h 20.1mph /  32.3km/h 95% 0in /  0.0mm
01:34 49.8 °F /  9.9 °C 48.4 °F /  9.1 °C 29.9in /  1013.1hPa WSW 13mph /  20.9km/h 20.1mph /  32.3km/h 95% 0in /  0.0mm
01:39 49.8 °F /  9.9 °C 48.4 °F /  9.1 °C 29.9in /  1013.1hPa West 13.2mph /  21.2km/h 20.1mph /  32.3km/h 95% 0in /  0.0mm
01:44 49.8 °F /  9.9 °C 48.4 °F /  9.1 °C 29.9in /  1013.1hPa WSW 17mph /  27.4km/h 17mph /  27.4km/h 95% 0in /  0.0mm
01:49 49.8 °F /  9.9 °C 48.4 °F /  9.1 °C 29.9in /  1013.1hPa WSW 13.9mph /  22.4km/h 17.4mph /  28.0km/h 95% 0in /  0.0mm
01:54 49.8 °F /  9.9 °C 48.4 °F /  9.1 °C 29.9in /  1012.1hPa WSW 19.7mph /  31.7km/h 19.9mph /  32.0km/h 95% 0in /  0.0mm
01:59 49.8 °F /  9.9 °C 48.4 °F /  9.1 °C 29.9in /  1012.1hPa WSW 14.1mph /  22.7km/h 22.6mph /  36.4km/h 95% 0in /  0.0mm
02:04 49.8 °F /  9.9 °C 48.4 °F /  9.1 °C 29.9in /  1012.1hPa WSW 18.6mph /  29.9km/h 22.6mph /  36.4km/h 95% 0in /  0.0mm
02:09 50 °F /  10.0 °C 48.6 °F /  9.2 °C 29.9in /  1013.1hPa West 19.2mph /  30.9km/h 23.3mph /  37.5km/h 95% 0in /  0.0mm
02:14 50 °F /  10.0 °C 48.6 °F /  9.2 °C 29.9in /  1013.1hPa WSW 17.7mph /  28.5km/h 23.3mph /  37.5km/h 95% 0in /  0.0mm
02:19 50 °F /  10.0 °C 48.6 °F /  9.2 °C 29.9in /  1013.1hPa WSW 15.4mph /  24.8km/h 22.8mph /  36.7km/h 95% 0in /  0.0mm
02:24 50 °F /  10.0 °C 48.6 °F /  9.2 °C 29.9in /  1011.1hPa WSW 19.2mph /  30.9km/h 19.2mph /  30.9km/h 95% 0in /  0.0mm
02:28 50.2 °F /  10.1 °C 48.7 °F /  9.3 °C 29.9in /  1011.1hPa WSW 20.6mph /  33.1km/h 20.6mph /  33.1km/h 95% 0in /  0.0mm
02:34 50.2 °F /  10.1 °C 48.7 °F /  9.3 °C 29.9in /  1011.1hPa WSW 12.8mph /  20.6km/h 20.6mph /  33.1km/h 95% 0in /  0.0mm
02:38 50.2 °F /  10.1 °C 48.7 °F /  9.3 °C 29.9in /  1011.1hPa WSW 12.8mph /  20.6km/h 20.6mph /  33.1km/h 95% 0in /  0.0mm
02:44 50.2 °F /  10.1 °C 48.7 °F /  9.3 °C 29.9in /  1011.1hPa WSW 14.8mph /  23.8km/h 24.2mph /  38.9km/h 95% 0in /  0.0mm
02:49 50.2 °F /  10.1 °C 48.7 °F /  9.3 °C 29.9in /  1011.1hPa WSW 13.9mph /  22.4km/h 24.2mph /  38.9km/h 95% 0in /  0.0mm
02:54 50.2 °F /  10.1 °C 48.7 °F /  9.3 °C 29.9in /  1011.1hPa West 16.1mph /  25.9km/h 21.9mph /  35.2km/h 95% 0in /  0.0mm
02:58 50.2 °F /  10.1 °C 48.7 °F /  9.3 °C 29.9in /  1011.1hPa WSW 17mph /  27.4km/h 21.9mph /  35.2km/h 95% 0in /  0.0mm
03:04 50.2 °F /  10.1 °C 48.7 °F /  9.3 °C 29.9in /  1011.1hPa WSW 17.9mph /  28.8km/h 17.9mph /  28.8km/h 95% 0in /  0.0mm
03:09 50.2 °F /  10.1 °C 48.7 °F /  9.3 °C 29.8in /  1010.0hPa WSW 13.6mph /  21.9km/h 19.9mph /  32.0km/h 95% 0in /  0.0mm
03:14 50.4 °F /  10.2 °C 48.9 °F /  9.4 °C 29.8in /  1010.0hPa West 19mph /  30.6km/h 19.9mph /  32.0km/h 95% 0in /  0.0mm
03:19 50.4 °F /  10.2 °C 48.9 °F /  9.4 °C 29.8in /  1010.0hPa WSW 18.6mph /  29.9km/h 23.7mph /  38.1km/h 95% 0in /  0.0mm
03:24 50.5 °F /  10.3 °C 49.1 °F /  9.5 °C 29.9in /  1012.1hPa WSW 19.5mph /  31.4km/h 23.7mph /  38.1km/h 95% 0in /  0.0mm
03:29 50.5 °F /  10.3 °C 49.1 °F /  9.5 °C 29.9in /  1012.1hPa WSW 13.2mph /  21.2km/h 24.2mph /  38.9km/h 95% 0in /  0.0mm
03:34 50.7 °F /  10.4 °C 49.3 °F /  9.6 °C 29.9in /  1012.1hPa WSW 16.1mph /  25.9km/h 24.2mph /  38.9km/h 95% 0in /  0.0mm
03:39 50.7 °F /  10.4 °C 49.3 °F /  9.6 °C 29.8in /  1010.0hPa WSW 19.7mph /  31.7km/h 20.6mph /  33.1km/h 95% 0in /  0.0mm
03:44 50.7 °F /  10.4 °C 49.3 °F /  9.6 °C 29.8in /  1010.0hPa WSW 17.4mph /  28.0km/h 23.5mph /  37.8km/h 95% 0in /  0.0mm
03:49 50.9 °F /  10.5 °C 49.5 °F /  9.7 °C 29.8in /  1010.0hPa West 17.7mph /  28.5km/h 24.2mph /  38.9km/h 95% 0in /  0.0mm
03:54 50.9 °F /  10.5 °C 49.5 °F /  9.7 °C 29.9in /  1011.1hPa WSW 18.8mph /  30.2km/h 24.2mph /  38.9km/h 95% 0in /  0.0mm
03:59 50.9 °F /  10.5 °C 49.5 °F /  9.7 °C 29.9in /  1011.1hPa WSW 17.9mph /  28.8km/h 25.1mph /  40.4km/h 95% 0in /  0.0mm
04:04 51.1 °F /  10.6 °C 49.5 °F /  9.7 °C 29.9in /  1011.1hPa West 22.8mph /  36.7km/h 28mph /  45.1km/h 94% 0in /  0.0mm
04:09 51.1 °F /  10.6 °C 49.5 °F /  9.7 °C 29.9in /  1011.1hPa WSW 15.7mph /  25.3km/h 28mph /  45.1km/h 94% 0in /  0.0mm
04:14 51.1 °F /  10.6 °C 49.5 °F /  9.7 °C 29.9in /  1011.1hPa WSW 19.5mph /  31.4km/h 27.7mph /  44.6km/h 94% 0in /  0.0mm
04:19 51.1 °F /  10.6 °C 49.5 °F /  9.7 °C 29.9in /  1011.1hPa WSW 26.2mph /  42.2km/h 26.2mph /  42.2km/h 94% 0in /  0.0mm
04:24 51.1 °F /  10.6 °C 49.5 °F /  9.7 °C 29.9in /  1011.1hPa WSW 13.9mph /  22.4km/h 26.2mph /  42.2km/h 94% 0in /  0.0mm
04:29 51.1 °F /  10.6 °C 49.5 °F /  9.7 °C 29.9in /  1011.1hPa WSW 26.4mph /  42.5km/h 26.4mph /  42.5km/h 94% 0in /  0.0mm
04:34 51.1 °F /  10.6 °C 49.5 °F /  9.7 °C 29.9in /  1011.1hPa WSW 15.2mph /  24.5km/h 26.4mph /  42.5km/h 94% 0in /  0.0mm
04:39 51.1 °F /  10.6 °C 49.5 °F /  9.7 °C 29.9in /  1011.1hPa WSW 17.2mph /  27.7km/h 25.3mph /  40.7km/h 94% 0in /  0.0mm
04:44 51.1 °F /  10.6 °C 49.1 °F /  9.5 °C 29.9in /  1011.1hPa WSW 20.4mph /  32.8km/h 29.3mph /  47.1km/h 93% 0in /  0.0mm
04:49 51.1 °F /  10.6 °C 49.1 °F /  9.5 °C 29.9in /  1011.1hPa WSW 22.4mph /  36.0km/h 29.3mph /  47.1km/h 93% 0in /  0.0mm
04:54 51.1 °F /  10.6 °C 49.1 °F /  9.5 °C 29.8in /  1010.0hPa WSW 19.7mph /  31.7km/h 25.5mph /  41.0km/h 93% 0in /  0.0mm
04:59 50.9 °F /  10.5 °C 48.9 °F /  9.4 °C 29.8in /  1010.0hPa WSW 21.9mph /  35.2km/h 25.5mph /  41.0km/h 93% 0in /  0.0mm
05:04 50.9 °F /  10.5 °C 48.9 °F /  9.4 °C 29.8in /  1010.0hPa WSW 19.2mph /  30.9km/h 25.9mph /  41.7km/h 93% 0in /  0.0mm
05:09 50.9 °F /  10.5 °C 48.9 °F /  9.4 °C 29.8in /  1010.0hPa WSW 15.7mph /  25.3km/h 25.9mph /  41.7km/h 93% 0in /  0.0mm
05:14 50.9 °F /  10.5 °C 48.9 °F /  9.4 °C 29.8in /  1010.0hPa WSW 23mph /  37.0km/h 24.4mph /  39.3km/h 93% 0in /  0.0mm
05:19 50.9 °F /  10.5 °C 48.9 °F /  9.4 °C 29.8in /  1010.0hPa West 15.7mph /  25.3km/h 24.4mph /  39.3km/h 93% 0in /  0.0mm
05:24 50.9 °F /  10.5 °C 48.9 °F /  9.4 °C 29.8in /  1010.0hPa WSW 19mph /  30.6km/h 24.4mph /  39.3km/h 93% 0in /  0.0mm
05:29 50.9 °F /  10.5 °C 48.9 °F /  9.4 °C 29.8in /  1010.0hPa West 20.8mph /  33.5km/h 26.4mph /  42.5km/h 93% 0in /  0.0mm
05:34 50.9 °F /  10.5 °C 48.9 °F /  9.4 °C 29.8in /  1010.0hPa WSW 17.9mph /  28.8km/h 26.4mph /  42.5km/h 93% 0in /  0.0mm
05:39 50.9 °F /  10.5 °C 48.9 °F /  9.4 °C 29.8in /  1010.0hPa West 22.4mph /  36.0km/h 25.1mph /  40.4km/h 93% 0in /  0.0mm
05:44 50.9 °F /  10.5 °C 48.9 °F /  9.4 °C 29.8in /  1010.0hPa WSW 15.2mph /  24.5km/h 24.2mph /  38.9km/h 93% 0in /  0.0mm
05:49 50.9 °F /  10.5 °C 48.9 °F /  9.4 °C 29.8in /  1010.0hPa WSW 14.5mph /  23.3km/h 25.9mph /  41.7km/h 93% 0in /  0.0mm
05:54 50.9 °F /  10.5 °C 48.9 °F /  9.4 °C 29.8in /  1010.0hPa WSW 19mph /  30.6km/h 25.9mph /  41.7km/h 93% 0in /  0.0mm
05:59 50.7 °F /  10.4 °C 48.9 °F /  9.4 °C 29.8in /  1010.0hPa WSW 22.4mph /  36.0km/h 23.7mph /  38.1km/h 94% 0in /  0.0mm
06:04 50.7 °F /  10.4 °C 48.9 °F /  9.4 °C 29.8in /  1010.0hPa WSW 15.4mph /  24.8km/h 25.7mph /  41.4km/h 94% 0in /  0.0mm
06:09 50.7 °F /  10.4 °C 48.9 °F /  9.4 °C 29.8in /  1010.0hPa WSW 22.4mph /  36.0km/h 25.7mph /  41.4km/h 94% 0in /  0.0mm
06:14 50.7 °F /  10.4 °C 48.9 °F /  9.4 °C 29.8in /  1010.0hPa WSW 14.3mph /  23.0km/h 25.1mph /  40.4km/h 94% 0in /  0.0mm
06:19 50.7 °F /  10.4 °C 48.9 °F /  9.4 °C 29.8in /  1010.0hPa West 23.7mph /  38.1km/h 23.7mph /  38.1km/h 94% 0in /  0.0mm
06:24 50.7 °F /  10.4 °C 48.9 °F /  9.4 °C 29.8in /  1010.0hPa WSW 19mph /  30.6km/h 23.7mph /  38.1km/h 94% 0in /  0.0mm
06:29 50.9 °F /  10.5 °C 49.3 °F /  9.6 °C 29.8in /  1010.0hPa WSW 15.2mph /  24.5km/h 23.9mph /  38.5km/h 94% 0in /  0.0mm
06:34 50.7 °F /  10.4 °C 48.9 °F /  9.4 °C 29.8in /  1010.0hPa West 19mph /  30.6km/h 23.9mph /  38.5km/h 94% 0in /  0.0mm
06:39 50.7 °F /  10.4 °C 48.9 °F /  9.4 °C 29.8in /  1010.0hPa WSW 14.3mph /  23.0km/h 25.5mph /  41.0km/h 94% 0in /  0.0mm
06:44 50.7 °F /  10.4 °C 48.9 °F /  9.4 °C 29.8in /  1010.0hPa WSW 12.5mph /  20.1km/h 25.7mph /  41.4km/h 94% 0in /  0.0mm
06:49 50.7 °F /  10.4 °C 48.9 °F /  9.4 °C 29.8in /  1010.0hPa WSW 19.7mph /  31.7km/h 25.7mph /  41.4km/h 94% 0in /  0.0mm
06:54 50.7 °F /  10.4 °C 48.9 °F /  9.4 °C 29.8in /  1009.0hPa West 20.1mph /  32.3km/h 24.2mph /  38.9km/h 94% 0in /  0.0mm
06:59 50.7 °F /  10.4 °C 48.9 °F /  9.4 °C 29.8in /  1009.0hPa WSW 19.2mph /  30.9km/h 22.8mph /  36.7km/h 94% 0in /  0.0mm
07:04 50.7 °F /  10.4 °C 48.9 °F /  9.4 °C 29.8in /  1009.0hPa WSW 16.8mph /  27.0km/h 20.1mph /  32.3km/h 94% 0in /  0.0mm
07:09 50.7 °F /  10.4 °C 48.9 °F /  9.4 °C 29.8in /  1010.0hPa West 15.2mph /  24.5km/h 25.5mph /  41.0km/h 94% 0in /  0.0mm
07:14 50.9 °F /  10.5 °C 48.9 °F /  9.4 °C 29.8in /  1010.0hPa WSW 15.2mph /  24.5km/h 25.5mph /  41.0km/h 93% 0in /  0.0mm
07:19 50.9 °F /  10.5 °C 48.9 °F /  9.4 °C 29.8in /  1010.0hPa West 19.9mph /  32.0km/h 25.3mph /  40.7km/h 93% 0in /  0.0mm
07:24 50.9 °F /  10.5 °C 48.9 °F /  9.4 °C 29.8in /  1010.0hPa WSW 19.9mph /  32.0km/h 19.9mph /  32.0km/h 93% 0in /  0.0mm
07:29 50.9 °F /  10.5 °C 48.9 °F /  9.4 °C 29.8in /  1010.0hPa WSW 14.8mph /  23.8km/h 24.2mph /  38.9km/h 93% 0in /  0.0mm
07:34 50.9 °F /  10.5 °C 48.9 °F /  9.4 °C 29.8in /  1010.0hPa West 13mph /  20.9km/h 24.2mph /  38.9km/h 93% 0in /  0.0mm
07:39 50.9 °F /  10.5 °C 48.9 °F /  9.4 °C 29.8in /  1010.0hPa WSW 16.6mph /  26.7km/h 23.7mph /  38.1km/h 93% 0in /  0.0mm
07:44 50.9 °F /  10.5 °C 48.9 °F /  9.4 °C 29.8in /  1010.0hPa West 22.8mph /  36.7km/h 23.7mph /  38.1km/h 93% 0in /  0.0mm
07:49 50.9 °F /  10.5 °C 48.6 °F /  9.2 °C 29.8in /  1010.0hPa WSW 13mph /  20.9km/h 25.5mph /  41.0km/h 92% 0in /  0.0mm
07:54 51.1 °F /  10.6 °C 48.7 °F /  9.3 °C 29.8in /  1010.0hPa West 25.1mph /  40.4km/h 25.9mph /  41.7km/h 92% 0in /  0.0mm
07:59 51.1 °F /  10.6 °C 48.7 °F /  9.3 °C 29.8in /  1010.0hPa WSW 23.7mph /  38.1km/h 28.9mph /  46.5km/h 92% 0in /  0.0mm
08:04 51.1 °F /  10.6 °C 48.7 °F /  9.3 °C 29.8in /  1010.0hPa WSW 19.2mph /  30.9km/h 28.9mph /  46.5km/h 92% 0in /  0.0mm
08:09 51.1 °F /  10.6 °C 48.7 °F /  9.3 °C 29.8in /  1010.0hPa WSW 22.4mph /  36.0km/h 25.3mph /  40.7km/h 92% 0in /  0.0mm
08:14 51.1 °F /  10.6 °C 48.7 °F /  9.3 °C 29.8in /  1010.0hPa WSW 12.8mph /  20.6km/h 25.3mph /  40.7km/h 92% 0in /  0.0mm
08:19 51.1 °F /  10.6 °C 48.7 °F /  9.3 °C 29.8in /  1010.0hPa WNW 21.9mph /  35.2km/h 24.2mph /  38.9km/h 92% 0in /  0.0mm
08:24 51.1 °F /  10.6 °C 48.7 °F /  9.3 °C 29.9in /  1011.1hPa WSW 18.8mph /  30.2km/h 23.7mph /  38.1km/h 92% 0in /  0.0mm
08:29 51.3 °F /  10.7 °C 48.9 °F /  9.4 °C 29.9in /  1011.1hPa WSW 17.4mph /  28.0km/h 27.7mph /  44.6km/h 92% 0in /  0.0mm
08:34 51.3 °F /  10.7 °C 48.9 °F /  9.4 °C 29.9in /  1011.1hPa WSW 16.1mph /  25.9km/h 27.7mph /  44.6km/h 92% 0in /  0.0mm
08:35 51.3 °F /  10.7 °C 48.9 °F /  9.4 °C 29.9in /  1011.1hPa WSW 17.9mph /  28.8km/h 27.7mph /  44.6km/h 92% 0in /  0.0mm
08:40 51.3 °F /  10.7 °C 48.9 °F /  9.4 °C 29.8in /  1010.0hPa WSW 21.9mph /  35.2km/h 30.4mph /  48.9km/h 92% 0in /  0.0mm
08:45 51.3 °F /  10.7 °C 48.9 °F /  9.4 °C 29.8in /  1010.0hPa West 23.7mph /  38.1km/h 30.4mph /  48.9km/h 92% 0in /  0.0mm
08:50 51.3 °F /  10.7 °C 49.3 °F /  9.6 °C 29.8in /  1010.0hPa WSW 19.9mph /  32.0km/h 28.4mph /  45.7km/h 93% 0in /  0.0mm
08:55 51.3 °F /  10.7 °C 49.3 °F /  9.6 °C 29.9in /  1011.1hPa WSW 19.9mph /  32.0km/h 28.4mph /  45.7km/h 93% 0in /  0.0mm
09:00 51.4 °F /  10.8 °C 49.3 °F /  9.6 °C 29.9in /  1011.1hPa West 19.9mph /  32.0km/h 28.6mph /  46.0km/h 92% 0in /  0.0mm
09:05 51.4 °F /  10.8 °C 49.5 °F /  9.7 °C 29.9in /  1011.1hPa West 23.5mph /  37.8km/h 28.6mph /  46.0km/h 93% 0in /  0.0mm
09:10 51.4 °F /  10.8 °C 49.5 °F /  9.7 °C 29.9in /  1011.1hPa WSW 14.5mph /  23.3km/h 26.8mph /  43.1km/h 93% 0in /  0.0mm
09:15 51.3 °F /  10.7 °C 49.6 °F /  9.8 °C 29.9in /  1011.1hPa WSW 16.3mph /  26.2km/h 26.8mph /  43.1km/h 94% 0in /  0.0mm
09:20 51.3 °F /  10.7 °C 49.6 °F /  9.8 °C 29.9in /  1011.1hPa West 25.1mph /  40.4km/h 25.1mph /  40.4km/h 94% 0in /  0.0mm
09:25 51.3 °F /  10.7 °C 49.6 °F /  9.8 °C 29.9in /  1011.1hPa West 22.4mph /  36.0km/h 25.1mph /  40.4km/h 94% 0in /  0.0mm
09:30 51.3 °F /  10.7 °C 49.6 °F /  9.8 °C 29.9in /  1011.1hPa WSW 14.1mph /  22.7km/h 31.3mph /  50.4km/h 94% 0in /  0.0mm
09:35 51.3 °F /  10.7 °C 49.6 °F /  9.8 °C 29.9in /  1011.1hPa WSW 18.8mph /  30.2km/h 31.3mph /  50.4km/h 94% 0in /  0.0mm
09:40 51.3 °F /  10.7 °C 49.8 °F /  9.9 °C 29.8in /  1010.0hPa WSW 24.2mph /  38.9km/h 26.4mph /  42.5km/h 95% 0in /  0.0mm
09:45 51.3 °F /  10.7 °C 49.8 °F /  9.9 °C 29.8in /  1010.0hPa WSW 17.4mph /  28.0km/h 27.1mph /  43.6km/h 95% 0in /  0.0mm
09:50 51.3 °F /  10.7 °C 49.8 °F /  9.9 °C 29.8in /  1010.0hPa West 26.2mph /  42.2km/h 27.1mph /  43.6km/h 95% 0in /  0.0mm
09:55 51.3 °F /  10.7 °C 49.8 °F /  9.9 °C 29.8in /  1010.0hPa WSW 21.3mph /  34.3km/h 27.1mph /  43.6km/h 95% 0in /  0.0mm
10:00 51.3 °F /  10.7 °C 49.8 °F /  9.9 °C 29.8in /  1010.0hPa WSW 15.4mph /  24.8km/h 30mph /  48.3km/h 95% 0in /  0.0mm
10:05 51.3 °F /  10.7 °C 49.8 °F /  9.9 °C 29.8in /  1010.0hPa WSW 23.9mph /  38.5km/h 30mph /  48.3km/h 95% 0in /  0.0mm
10:10 51.3 °F /  10.7 °C 49.8 °F /  9.9 °C 29.9in /  1011.1hPa West 22.8mph /  36.7km/h 28.4mph /  45.7km/h 95% 0in /  0.0mm
10:15 51.4 °F /  10.8 °C 49.6 °F /  9.8 °C 29.9in /  1011.1hPa West 17.9mph /  28.8km/h 26.8mph /  43.1km/h 94% 0in /  0.0mm
10:20 51.4 °F /  10.8 °C 49.6 °F /  9.8 °C 29.9in /  1011.1hPa West 12.1mph /  19.5km/h 26.8mph /  43.1km/h 94% 0in /  0.0mm
10:25 51.4 °F /  10.8 °C 49.6 °F /  9.8 °C 29.9in /  1011.1hPa West 16.3mph /  26.2km/h 26.8mph /  43.1km/h 94% 0in /  0.0mm
10:30 51.6 °F /  10.9 °C 49.8 °F /  9.9 °C 29.9in /  1011.1hPa WSW 14.8mph /  23.8km/h 26.8mph /  43.1km/h 94% 0in /  0.0mm
10:35 51.6 °F /  10.9 °C 49.8 °F /  9.9 °C 29.9in /  1011.1hPa WSW 19mph /  30.6km/h 28mph /  45.1km/h 94% 0in /  0.0mm
10:40 51.6 °F /  10.9 °C 49.8 °F /  9.9 °C 29.9in /  1011.1hPa West 15.4mph /  24.8km/h 28mph /  45.1km/h 94% 0in /  0.0mm
10:45 51.6 °F /  10.9 °C 49.8 °F /  9.9 °C 29.9in /  1011.1hPa WSW 25.9mph /  41.7km/h 26.4mph /  42.5km/h 94% 0in /  0.0mm
10:50 51.6 °F /  10.9 °C 49.8 °F /  9.9 °C 29.9in /  1011.1hPa WSW 14.5mph /  23.3km/h 26.4mph /  42.5km/h 94% 0in /  0.0mm
10:55 51.6 °F /  10.9 °C 49.8 °F /  9.9 °C 29.9in /  1011.1hPa SSW 22.1mph /  35.6km/h 25.9mph /  41.7km/h 94% 0in /  0.0mm
11:00 51.6 °F /  10.9 °C 50.2 °F /  10.1 °C 29.9in /  1011.1hPa West 15.7mph /  25.3km/h 25.7mph /  41.4km/h 95% 0in /  0.0mm
11:05 51.4 °F /  10.8 °C 50 °F /  10.0 °C 29.9in /  1011.1hPa West 23.9mph /  38.5km/h 30mph /  48.3km/h 95% 0in /  0.0mm
11:10 51.4 °F /  10.8 °C 50 °F /  10.0 °C 29.9in /  1011.1hPa WSW 17.9mph /  28.8km/h 30mph /  48.3km/h 95% 0in /  0.0mm
11:15 51.6 °F /  10.9 °C 50.2 °F /  10.1 °C 29.9in /  1011.1hPa WSW 15.2mph /  24.5km/h 28.6mph /  46.0km/h 95% 0in /  0.0mm
11:20 51.8 °F /  11.0 °C 50.4 °F /  10.2 °C 29.9in /  1011.1hPa WSW 16.6mph /  26.7km/h 27.7mph /  44.6km/h 95% 0in /  0.0mm
11:25 52 °F /  11.1 °C 50.5 °F /  10.3 °C 29.9in /  1011.1hPa West 21.5mph /  34.6km/h 26.2mph /  42.2km/h 95% 0in /  0.0mm
11:30 52.2 °F /  11.2 °C 50.7 °F /  10.4 °C 29.9in /  1011.1hPa SW 15.4mph /  24.8km/h 30.6mph /  49.2km/h 95% 0in /  0.0mm
11:35 52.2 °F /  11.2 °C 50.4 °F /  10.2 °C 29.9in /  1011.1hPa WSW 20.8mph /  33.5km/h 30.6mph /  49.2km/h 94% 0in /  0.0mm
11:40 52.2 °F /  11.2 °C 50.4 °F /  10.2 °C 29.9in /  1011.1hPa West 17.2mph /  27.7km/h 24.4mph /  39.3km/h 94% 0in /  0.0mm
11:45 52.3 °F /  11.3 °C 50.5 °F /  10.3 °C 29.9in /  1011.1hPa West 23.9mph /  38.5km/h 28.9mph /  46.5km/h 94% 0in /  0.0mm
11:50 52.3 °F /  11.3 °C 50.5 °F /  10.3 °C 29.9in /  1011.1hPa WSW 22.6mph /  36.4km/h 28.9mph /  46.5km/h 94% 0in /  0.0mm
11:55 52.5 °F /  11.4 °C 50.7 °F /  10.4 °C 29.9in /  1011.1hPa WSW 17.4mph /  28.0km/h 30mph /  48.3km/h 94% 0in /  0.0mm
12:00 52.5 °F /  11.4 °C 51.1 °F /  10.6 °C 29.9in /  1011.1hPa West 17.7mph /  28.5km/h 30mph /  48.3km/h 94% 0in /  0.0mm
12:05 52.5 °F /  11.4 °C 50.7 °F /  10.4 °C 29.9in /  1011.1hPa West 21.9mph /  35.2km/h 27.3mph /  43.9km/h 93% 0in /  0.0mm
12:10 52.5 °F /  11.4 °C 50.7 °F /  10.4 °C 29.9in /  1011.1hPa WSW 26.4mph /  42.5km/h 29.1mph /  46.8km/h 93% 0in /  0.0mm
12:15 52.5 °F /  11.4 °C 50.2 °F /  10.1 °C 29.9in /  1011.1hPa West 28.9mph /  46.5km/h 31.8mph /  51.2km/h 92% 0in /  0.0mm
12:20 52.5 °F /  11.4 °C 50.5 °F /  10.3 °C 29.9in /  1011.1hPa WSW 22.4mph /  36.0km/h 31.8mph /  51.2km/h 93% 0in /  0.0mm
12:25 52.5 °F /  11.4 °C 50.5 °F /  10.3 °C 29.9in /  1011.1hPa WSW 25.3mph /  40.7km/h 29.1mph /  46.8km/h 93% 0in /  0.0mm
12:30 52.5 °F /  11.4 °C 50.5 °F /  10.3 °C 29.9in /  1011.1hPa West 22.8mph /  36.7km/h 28.4mph /  45.7km/h 93% 0in /  0.0mm
12:35 52.5 °F /  11.4 °C 50.5 °F /  10.3 °C 29.9in /  1011.1hPa WSW 19.5mph /  31.4km/h 28.4mph /  45.7km/h 93% 0in /  0.0mm
12:40 52.5 °F /  11.4 °C 50.5 °F /  10.3 °C 29.8in /  1010.0hPa West 20.8mph /  33.5km/h 28.4mph /  45.7km/h 93% 0in /  0.0mm
12:45 52.3 °F /  11.3 °C 50.4 °F /  10.2 °C 29.8in /  1010.0hPa WSW 23.7mph /  38.1km/h 28.9mph /  46.5km/h 93% 0in /  0.0mm
12:50 52.3 °F /  11.3 °C 50.4 °F /  10.2 °C 29.8in /  1010.0hPa West 26.8mph /  43.1km/h 28.9mph /  46.5km/h 93% 0in /  0.0mm
12:55 52.3 °F /  11.3 °C 50.5 °F /  10.3 °C 29.8in /  1010.0hPa West 15.9mph /  25.6km/h 27.7mph /  44.6km/h 94% 0in /  0.0mm
13:00 52.3 °F /  11.3 °C 50.5 °F /  10.3 °C 29.8in /  1010.0hPa WSW 28mph /  45.1km/h 29.5mph /  47.5km/h 94% 0in /  0.0mm
13:05 52.2 °F /  11.2 °C 50.4 °F /  10.2 °C 29.8in /  1010.0hPa West 29.8mph /  47.9km/h 30.6mph /  49.2km/h 94% 0in /  0.0mm
13:10 52.2 °F /  11.2 °C 50.4 °F /  10.2 °C 29.8in /  1010.0hPa WSW 22.6mph /  36.4km/h 30.6mph /  49.2km/h 94% 0in /  0.0mm
13:15 52.2 °F /  11.2 °C 50.4 °F /  10.2 °C 29.8in /  1010.0hPa West 17.7mph /  28.5km/h 27.7mph /  44.6km/h 94% 0in /  0.0mm
13:20 52.2 °F /  11.2 °C 50.4 °F /  10.2 °C 29.8in /  1010.0hPa West 22.4mph /  36.0km/h 28.6mph /  46.0km/h 94% 0in /  0.0mm
13:25 52.3 °F /  11.3 °C 50.9 °F /  10.5 °C 29.8in /  1010.0hPa WSW 23.9mph /  38.5km/h 28.6mph /  46.0km/h 95% 0in /  0.0mm
13:30 52.3 °F /  11.3 °C 50.5 °F /  10.3 °C 29.8in /  1010.0hPa WSW 17.2mph /  27.7km/h 27.1mph /  43.6km/h 94% 0in /  0.0mm
13:35 52.3 °F /  11.3 °C 50.5 °F /  10.3 °C 29.8in /  1010.0hPa WSW 29.5mph /  47.5km/h 29.5mph /  47.5km/h 94% 0in /  0.0mm
13:40 52.3 °F /  11.3 °C 50.5 °F /  10.3 °C 29.8in /  1010.0hPa WSW 21.3mph /  34.3km/h 29.5mph /  47.5km/h 94% 0in /  0.0mm
13:45 52.3 °F /  11.3 °C 50.5 °F /  10.3 °C 29.8in /  1010.0hPa West 19.7mph /  31.7km/h 32.7mph /  52.6km/h 94% 0in /  0.0mm
13:50 52.3 °F /  11.3 °C 50.5 °F /  10.3 °C 29.8in /  1010.0hPa WSW 22.8mph /  36.7km/h 32.7mph /  52.6km/h 94% 0in /  0.0mm
13:55 52.5 °F /  11.4 °C 50.5 °F /  10.3 °C 29.8in /  1009.0hPa WSW 22.4mph /  36.0km/h 31.1mph /  50.0km/h 93% 0in /  0.0mm
14:00 52.5 °F /  11.4 °C 50.5 °F /  10.3 °C 29.8in /  1009.0hPa WSW 27.1mph /  43.6km/h 31.1mph /  50.0km/h 93% 0in /  0.0mm
14:05 52.5 °F /  11.4 °C 50.5 °F /  10.3 °C 29.8in /  1009.0hPa West 19.7mph /  31.7km/h 31.8mph /  51.2km/h 93% 0in /  0.0mm
14:10 52.3 °F /  11.3 °C 50.4 °F /  10.2 °C 29.8in /  1009.0hPa WSW 16.6mph /  26.7km/h 31.8mph /  51.2km/h 93% 0in /  0.0mm
14:15 52.3 °F /  11.3 °C 50.4 °F /  10.2 °C 29.8in /  1009.0hPa WSW 14.3mph /  23.0km/h 32.4mph /  52.1km/h 93% 0in /  0.0mm
14:20 52.3 °F /  11.3 °C 50.4 °F /  10.2 °C 29.8in /  1009.0hPa WSW 26.4mph /  42.5km/h 32.4mph /  52.1km/h 93% 0in /  0.0mm
14:25 52.3 °F /  11.3 °C 50.4 °F /  10.2 °C 29.8in /  1009.0hPa WSW 20.8mph /  33.5km/h 34.7mph /  55.8km/h 93% 0in /  0.0mm
14:26 52.3 °F /  11.3 °C 50.4 °F /  10.2 °C 29.8in /  1009.0hPa WSW 15.2mph /  24.5km/h 34.7mph /  55.8km/h 93% 0in /  0.0mm
14:31 52.3 °F /  11.3 °C 50.4 °F /  10.2 °C 29.8in /  1009.0hPa WSW 22.8mph /  36.7km/h 34.7mph /  55.8km/h 93% 0in /  0.0mm
14:36 52.5 °F /  11.4 °C 50.5 °F /  10.3 °C 29.8in /  1009.0hPa WSW 23.5mph /  37.8km/h 31.8mph /  51.2km/h 93% 0in /  0.0mm
14:41 52.5 °F /  11.4 °C 50.5 °F /  10.3 °C 29.8in /  1008.0hPa West 22.8mph /  36.7km/h 30.2mph /  48.6km/h 93% 0in /  0.0mm
14:46 52.5 °F /  11.4 °C 50.7 °F /  10.4 °C 29.8in /  1008.0hPa West 25.5mph /  41.0km/h 30.2mph /  48.6km/h 93% 0in /  0.0mm
14:51 52.5 °F /  11.4 °C 50.7 °F /  10.4 °C 29.8in /  1008.0hPa WSW 24.2mph /  38.9km/h 28mph /  45.1km/h 93% 0in /  0.0mm
14:56 52.5 °F /  11.4 °C 50.5 °F /  10.3 °C 29.8in /  1009.0hPa WSW 20.1mph /  32.3km/h 26.6mph /  42.8km/h 93% 0in /  0.0mm
15:01 52.5 °F /  11.4 °C 50.5 °F /  10.3 °C 29.8in /  1009.0hPa West 26.2mph /  42.2km/h 32.7mph /  52.6km/h 93% 0in /  0.0mm
15:06 52.3 °F /  11.3 °C 50.4 °F /  10.2 °C 29.8in /  1009.0hPa West 19.7mph /  31.7km/h 32.7mph /  52.6km/h 93% 0in /  0.0mm
15:11 52.3 °F /  11.3 °C 50.4 °F /  10.2 °C 29.8in /  1009.0hPa WSW 27.3mph /  43.9km/h 30mph /  48.3km/h 93% 0in /  0.0mm
15:16 52.3 °F /  11.3 °C 50.4 °F /  10.2 °C 29.8in /  1009.0hPa WSW 22.6mph /  36.4km/h 28.6mph /  46.0km/h 93% 0in /  0.0mm
15:21 52.2 °F /  11.2 °C 50.2 °F /  10.1 °C 29.8in /  1009.0hPa WSW 25.3mph /  40.7km/h 28.6mph /  46.0km/h 93% 0in /  0.0mm
15:22 52.2 °F /  11.2 °C 50.2 °F /  10.1 °C 29.8in /  1009.0hPa WSW 19.9mph /  32.0km/h 28.6mph /  46.0km/h 93% 0in /  0.0mm
15:27 52.2 °F /  11.2 °C 50.2 °F /  10.1 °C 29.8in /  1009.0hPa WSW 13.4mph /  21.6km/h 30mph /  48.3km/h 93% 0in /  0.0mm
15:32 52.2 °F /  11.2 °C 50.2 °F /  10.1 °C 29.8in /  1009.0hPa West 20.1mph /  32.3km/h 30mph /  48.3km/h 93% 0in /  0.0mm
15:37 52.2 °F /  11.2 °C 50.2 °F /  10.1 °C 29.8in /  1009.0hPa WSW 27.1mph /  43.6km/h 30.6mph /  49.2km/h 93% 0in /  0.0mm
15:42 52 °F /  11.1 °C 50 °F /  10.0 °C 29.8in /  1010.0hPa WSW 15.2mph /  24.5km/h 30.6mph /  49.2km/h 93% 0in /  0.0mm
15:47 52 °F /  11.1 °C 50 °F /  10.0 °C 29.8in /  1010.0hPa WSW 19mph /  30.6km/h 32.2mph /  51.8km/h 93% 0in /  0.0mm
15:52 52 °F /  11.1 °C 50 °F /  10.0 °C 29.8in /  1010.0hPa WSW 16.8mph /  27.0km/h 32.2mph /  51.8km/h 93% 0in /  0.0mm
15:57 52 °F /  11.1 °C 50.4 °F /  10.2 °C 29.8in /  1009.0hPa WSW 15.9mph /  25.6km/h 30.4mph /  48.9km/h 94% 0in /  0.0mm
16:02 51.8 °F /  11.0 °C 50.2 °F /  10.1 °C 29.8in /  1009.0hPa WSW 23mph /  37.0km/h 26.2mph /  42.2km/h 94% 0in /  0.0mm
16:07 51.6 °F /  10.9 °C 49.8 °F /  9.9 °C 29.8in /  1009.0hPa WSW 15.2mph /  24.5km/h 26.2mph /  42.2km/h 94% 0in /  0.0mm
16:12 51.6 °F /  10.9 °C 50.2 °F /  10.1 °C 29.8in /  1008.0hPa WSW 20.4mph /  32.8km/h 25.9mph /  41.7km/h 95% 0in /  0.0mm
16:17 51.4 °F /  10.8 °C 50 °F /  10.0 °C 29.8in /  1008.0hPa WSW 21mph /  33.8km/h 26.8mph /  43.1km/h 95% 0in /  0.0mm
16:22 51.3 °F /  10.7 °C 49.8 °F /  9.9 °C 29.8in /  1008.0hPa WSW 18.6mph /  29.9km/h 26.8mph /  43.1km/h 95% 0in /  0.0mm
16:27 51.3 °F /  10.7 °C 49.8 °F /  9.9 °C 29.8in /  1009.0hPa West 12.8mph /  20.6km/h 26.8mph /  43.1km/h 95% 0in /  0.0mm
16:32 51.3 °F /  10.7 °C 49.8 °F /  9.9 °C 29.8in /  1009.0hPa WSW 22.8mph /  36.7km/h 27.7mph /  44.6km/h 95% 0in /  0.0mm
16:37 51.3 °F /  10.7 °C 49.8 °F /  9.9 °C 29.8in /  1009.0hPa WSW 17mph /  27.4km/h 27.7mph /  44.6km/h 95% 0in /  0.0mm
16:42 51.3 °F /  10.7 °C 49.8 °F /  9.9 °C 29.8in /  1009.0hPa WSW 17.7mph /  28.5km/h 25.3mph /  40.7km/h 95% 0in /  0.0mm
16:47 51.3 °F /  10.7 °C 49.8 °F /  9.9 °C 29.8in /  1009.0hPa West 20.4mph /  32.8km/h 25.7mph /  41.4km/h 95% 0in /  0.0mm
16:52 51.3 °F /  10.7 °C 49.8 °F /  9.9 °C 29.8in /  1009.0hPa West 18.1mph /  29.1km/h 25.7mph /  41.4km/h 95% 0in /  0.0mm
16:57 51.3 °F /  10.7 °C 49.8 °F /  9.9 °C 29.8in /  1009.0hPa West 18.6mph /  29.9km/h 27.3mph /  43.9km/h 95% 0in /  0.0mm
17:02 51.3 °F /  10.7 °C 49.8 °F /  9.9 °C 29.8in /  1009.0hPa WSW 17.2mph /  27.7km/h 27.3mph /  43.9km/h 95% 0in /  0.0mm
17:07 51.3 °F /  10.7 °C 49.8 °F /  9.9 °C 29.8in /  1009.0hPa West 25.5mph /  41.0km/h 29.5mph /  47.5km/h 95% 0in /  0.0mm
17:12 51.3 °F /  10.7 °C 49.8 °F /  9.9 °C 29.8in /  1009.0hPa WSW 16.3mph /  26.2km/h 29.5mph /  47.5km/h 95% 0in /  0.0mm
17:17 51.1 °F /  10.6 °C 50 °F /  10.0 °C 29.8in /  1009.0hPa WSW 17.2mph /  27.7km/h 27.7mph /  44.6km/h 96% 0in /  0.0mm
17:22 51.1 °F /  10.6 °C 50 °F /  10.0 °C 29.8in /  1009.0hPa WSW 20.1mph /  32.3km/h 28.4mph /  45.7km/h 96% 0in /  0.0mm
17:27 51.1 °F /  10.6 °C 50 °F /  10.0 °C 29.8in /  1009.0hPa WSW 14.8mph /  23.8km/h 28.4mph /  45.7km/h 96% 0in /  0.0mm
17:32 50.9 °F /  10.5 °C 49.8 °F /  9.9 °C 29.8in /  1009.0hPa West 12.8mph /  20.6km/h 25.7mph /  41.4km/h 96% 0in /  0.0mm
17:37 50.9 °F /  10.5 °C 49.8 °F /  9.9 °C 29.8in /  1009.0hPa WSW 15.4mph /  24.8km/h 26.2mph /  42.2km/h 96% 0in /  0.0mm
17:42 50.9 °F /  10.5 °C 49.8 °F /  9.9 °C 29.8in /  1009.0hPa West 22.8mph /  36.7km/h 26.2mph /  42.2km/h 96% 0in /  0.0mm
17:47 50.9 °F /  10.5 °C 49.8 °F /  9.9 °C 29.8in /  1009.0hPa WSW 17.2mph /  27.7km/h 25.9mph /  41.7km/h 96% 0in /  0.0mm
17:52 50.7 °F /  10.4 °C 49.6 °F /  9.8 °C 29.8in /  1008.0hPa West 19.7mph /  31.7km/h 25.9mph /  41.7km/h 96% 0in /  0.0mm
17:57 50.7 °F /  10.4 °C 49.6 °F /  9.8 °C 29.8in /  1008.0hPa WSW 21.9mph /  35.2km/h 23.3mph /  37.5km/h 96% 0in /  0.0mm
18:02 50.7 °F /  10.4 °C 49.6 °F /  9.8 °C 29.8in /  1008.0hPa WSW 16.8mph /  27.0km/h 25.3mph /  40.7km/h 96% 0in /  0.0mm
18:07 50.7 °F /  10.4 °C 49.6 °F /  9.8 °C 29.8in /  1009.0hPa WSW 22.1mph /  35.6km/h 28.4mph /  45.7km/h 96% 0in /  0.0mm
18:12 50.7 °F /  10.4 °C 49.6 °F /  9.8 °C 29.8in /  1009.0hPa WSW 20.6mph /  33.1km/h 28.4mph /  45.7km/h 96% 0in /  0.0mm
18:17 50.7 °F /  10.4 °C 49.6 °F /  9.8 °C 29.8in /  1009.0hPa WSW 17.7mph /  28.5km/h 27.5mph /  44.2km/h 96% 0in /  0.0mm
18:22 50.7 °F /  10.4 °C 49.6 °F /  9.8 °C 29.8in /  1009.0hPa WSW 26.2mph /  42.2km/h 26.2mph /  42.2km/h 96% 0in /  0.0mm
18:27 50.7 °F /  10.4 °C 49.6 °F /  9.8 °C 29.8in /  1009.0hPa West 30.9mph /  49.7km/h 30.9mph /  49.7km/h 96% 0in /  0.0mm
18:32 50.7 °F /  10.4 °C 49.6 °F /  9.8 °C 29.8in /  1009.0hPa WSW 17.7mph /  28.5km/h 31.1mph /  50.0km/h 96% 0in /  0.0mm
18:37 50.9 °F /  10.5 °C 49.8 °F /  9.9 °C 29.8in /  1009.0hPa West 22.4mph /  36.0km/h 31.1mph /  50.0km/h 96% 0in /  0.0mm
18:42 50.9 °F /  10.5 °C 49.8 °F /  9.9 °C 29.8in /  1010.0hPa WSW 24.4mph /  39.3km/h 26.4mph /  42.5km/h 96% 0in /  0.0mm
18:47 50.9 °F /  10.5 °C 49.8 °F /  9.9 °C 29.8in /  1010.0hPa WSW 25.3mph /  40.7km/h 28.6mph /  46.0km/h 96% 0in /  0.0mm
18:52 50.9 °F /  10.5 °C 49.8 °F /  9.9 °C 29.8in /  1010.0hPa WSW 21mph /  33.8km/h 28.6mph /  46.0km/h 96% 0in /  0.0mm
18:57 50.9 °F /  10.5 °C 49.8 °F /  9.9 °C 29.8in /  1009.0hPa West 20.8mph /  33.5km/h 27.7mph /  44.6km/h 96% 0in /  0.0mm
19:02 50.9 °F /  10.5 °C 49.8 °F /  9.9 °C 29.8in /  1009.0hPa West 15.4mph /  24.8km/h 27.7mph /  44.6km/h 96% 0in /  0.0mm
19:07 50.9 °F /  10.5 °C 49.8 °F /  9.9 °C 29.8in /  1009.0hPa WSW 22.8mph /  36.7km/h 25.3mph /  40.7km/h 96% 0in /  0.0mm
19:12 50.9 °F /  10.5 °C 49.8 °F /  9.9 °C 29.8in /  1008.0hPa WSW 23.5mph /  37.8km/h 28.4mph /  45.7km/h 96% 0in /  0.0mm
19:17 50.9 °F /  10.5 °C 49.8 °F /  9.9 °C 29.8in /  1008.0hPa WSW 19.9mph /  32.0km/h 28.4mph /  45.7km/h 96% 0in /  0.0mm
19:22 50.9 °F /  10.5 °C 49.8 °F /  9.9 °C 29.8in /  1008.0hPa West 17.2mph /  27.7km/h 25.5mph /  41.0km/h 96% 0in /  0.0mm
19:27 50.9 °F /  10.5 °C 49.8 °F /  9.9 °C 29.8in /  1008.0hPa West 17.2mph /  27.7km/h 30.2mph /  48.6km/h 96% 0in /  0.0mm
19:32 50.9 °F /  10.5 °C 49.8 °F /  9.9 °C 29.8in /  1008.0hPa West 17.9mph /  28.8km/h 30.2mph /  48.6km/h 96% 0in /  0.0mm
19:37 50.9 °F /  10.5 °C 49.8 °F /  9.9 °C 29.8in /  1009.0hPa WSW 25.3mph /  40.7km/h 32.7mph /  52.6km/h 96% 0in /  0.0mm
19:42 50.7 °F /  10.4 °C 49.6 °F /  9.8 °C 29.8in /  1009.0hPa WSW 17.2mph /  27.7km/h 32.7mph /  52.6km/h 96% 0in /  0.0mm
19:47 50.7 °F /  10.4 °C 49.6 °F /  9.8 °C 29.8in /  1009.0hPa WSW 12.3mph /  19.8km/h 23.9mph /  38.5km/h 96% 0in /  0.0mm
19:52 50.7 °F /  10.4 °C 49.6 °F /  9.8 °C 29.8in /  1009.0hPa WSW 15.7mph /  25.3km/h 24.6mph /  39.6km/h 96% 0in /  0.0mm
19:57 50.7 °F /  10.4 °C 49.6 °F /  9.8 °C 29.8in /  1009.0hPa WSW 19.7mph /  31.7km/h 24.6mph /  39.6km/h 96% 0in /  0.0mm
20:02 50.7 °F /  10.4 °C 49.6 °F /  9.8 °C 29.8in /  1009.0hPa WSW 15.7mph /  25.3km/h 23.5mph /  37.8km/h 96% 0in /  0.0mm
20:07 50.7 °F /  10.4 °C 49.6 °F /  9.8 °C 29.8in /  1009.0hPa West 21.9mph /  35.2km/h 32.2mph /  51.8km/h 96% 0in /  0.0mm
20:12 50.7 °F /  10.4 °C 49.6 °F /  9.8 °C 29.8in /  1009.0hPa West 19.9mph /  32.0km/h 32.2mph /  51.8km/h 96% 0in /  0.0mm
20:17 50.7 °F /  10.4 °C 49.6 °F /  9.8 °C 29.8in /  1009.0hPa WSW 19.9mph /  32.0km/h 22.8mph /  36.7km/h 96% 0in /  0.0mm
20:22 50.9 °F /  10.5 °C 49.8 °F /  9.9 °C 29.8in /  1009.0hPa West 19.7mph /  31.7km/h 25.3mph /  40.7km/h 96% 0in /  0.0mm
20:27 50.9 °F /  10.5 °C 49.8 °F /  9.9 °C 29.8in /  1009.0hPa WSW 17.4mph /  28.0km/h 25.3mph /  40.7km/h 96% 0in /  0.0mm
20:32 50.9 °F /  10.5 °C 49.8 °F /  9.9 °C 29.8in /  1009.0hPa West 17mph /  27.4km/h 23mph /  37.0km/h 96% 0in /  0.0mm
20:37 50.7 °F /  10.4 °C 49.6 °F /  9.8 °C 29.8in /  1009.0hPa WSW 19.7mph /  31.7km/h 23.7mph /  38.1km/h 96% 0in /  0.0mm
20:42 50.7 °F /  10.4 °C 49.6 °F /  9.8 °C 29.8in /  1009.0hPa WSW 19.7mph /  31.7km/h 24.6mph /  39.6km/h 96% 0in /  0.0mm
20:47 50.7 °F /  10.4 °C 49.6 °F /  9.8 °C 29.8in /  1009.0hPa West 17mph /  27.4km/h 24.6mph /  39.6km/h 96% 0in /  0.0mm
20:52 50.7 °F /  10.4 °C 49.6 °F /  9.8 °C 29.8in /  1009.0hPa WSW 13.2mph /  21.2km/h 26.2mph /  42.2km/h 96% 0in /  0.0mm
20:57 50.7 °F /  10.4 °C 49.6 °F /  9.8 °C 29.8in /  1009.0hPa WSW 17.4mph /  28.0km/h 26.2mph /  42.2km/h 96% 0in /  0.0mm
21:02 50.7 °F /  10.4 °C 49.6 °F /  9.8 °C 29.8in /  1009.0hPa West 16.1mph /  25.9km/h 25.5mph /  41.0km/h 96% 0in /  0.0mm
21:07 50.7 °F /  10.4 °C 49.6 °F /  9.8 °C 29.8in /  1009.0hPa WSW 21.9mph /  35.2km/h 25.1mph /  40.4km/h 96% 0in /  0.0mm
21:12 50.7 °F /  10.4 °C 49.6 °F /  9.8 °C 29.8in /  1009.0hPa West 15.2mph /  24.5km/h 25.1mph /  40.4km/h 96% 0in /  0.0mm
21:17 50.7 °F /  10.4 °C 49.6 °F /  9.8 °C 29.8in /  1009.0hPa WSW 23.7mph /  38.1km/h 27.5mph /  44.2km/h 96% 0in /  0.0mm
21:22 50.7 °F /  10.4 °C 49.6 °F /  9.8 °C 29.8in /  1009.0hPa WSW 17mph /  27.4km/h 28mph /  45.1km/h 96% 0in /  0.0mm
21:27 50.7 °F /  10.4 °C 49.6 °F /  9.8 °C 29.8in /  1009.0hPa WSW 19.5mph /  31.4km/h 28mph /  45.1km/h 96% 0in /  0.0mm
21:32 50.7 °F /  10.4 °C 49.6 °F /  9.8 °C 29.8in /  1009.0hPa WSW 19.5mph /  31.4km/h 25.5mph /  41.0km/h 96% 0in /  0.0mm
21:37 50.7 °F /  10.4 °C 49.6 °F /  9.8 °C 29.8in /  1009.0hPa WSW 19.7mph /  31.7km/h 28.6mph /  46.0km/h 96% 0in /  0.0mm
21:42 50.7 °F /  10.4 °C 49.6 °F /  9.8 °C 29.8in /  1009.0hPa WSW 15.4mph /  24.8km/h 28.6mph /  46.0km/h 96% 0in /  0.0mm
21:47 50.7 °F /  10.4 °C 49.6 °F /  9.8 °C 29.8in /  1009.0hPa WSW 19.7mph /  31.7km/h 28.6mph /  46.0km/h 96% 0in /  0.0mm
21:52 50.7 °F /  10.4 °C 49.6 °F /  9.8 °C 29.8in /  1009.0hPa WSW 17mph /  27.4km/h 28.6mph /  46.0km/h 96% 0in /  0.0mm
21:57 50.7 °F /  10.4 °C 49.6 °F /  9.8 °C 29.8in /  1009.0hPa WSW 22.4mph /  36.0km/h 27.7mph /  44.6km/h 96% 0in /  0.0mm
22:02 50.7 °F /  10.4 °C 49.6 °F /  9.8 °C 29.8in /  1009.0hPa WSW 19.5mph /  31.4km/h 27.7mph /  44.6km/h 96% 0in /  0.0mm
22:07 50.7 °F /  10.4 °C 49.6 °F /  9.8 °C 29.8in /  1009.0hPa West 15.4mph /  24.8km/h 24.2mph /  38.9km/h 96% 0in /  0.0mm
22:12 50.7 °F /  10.4 °C 49.6 °F /  9.8 °C 29.8in /  1009.0hPa WSW 12.5mph /  20.1km/h 23.7mph /  38.1km/h 96% 0in /  0.0mm
22:17 50.7 °F /  10.4 °C 49.6 °F /  9.8 °C 29.8in /  1009.0hPa WSW 15.2mph /  24.5km/h 26.2mph /  42.2km/h 96% 0in /  0.0mm
22:22 50.7 °F /  10.4 °C 49.6 °F /  9.8 °C 29.8in /  1009.0hPa West 14.8mph /  23.8km/h 27.5mph /  44.2km/h 96% 0in /  0.0mm
22:27 50.7 °F /  10.4 °C 49.6 °F /  9.8 °C 29.8in /  1009.0hPa WSW 13.2mph /  21.2km/h 27.5mph /  44.2km/h 96% 0in /  0.0mm
22:32 50.7 °F /  10.4 °C 49.6 °F /  9.8 °C 29.8in /  1009.0hPa West 22.4mph /  36.0km/h 26.8mph /  43.1km/h 96% 0in /  0.0mm
22:37 50.9 °F /  10.5 °C 49.8 °F /  9.9 °C 29.8in /  1009.0hPa WSW 19.9mph /  32.0km/h 26.8mph /  43.1km/h 96% 0in /  0.0mm
22:42 50.9 °F /  10.5 °C 49.8 °F /  9.9 °C 29.8in /  1009.0hPa West 15.7mph /  25.3km/h 27.1mph /  43.6km/h 96% 0in /  0.0mm
22:47 50.9 °F /  10.5 °C 49.8 °F /  9.9 °C 29.8in /  1009.0hPa West 15.4mph /  24.8km/h 27.1mph /  43.6km/h 96% 0in /  0.0mm
22:52 50.9 °F /  10.5 °C 49.8 °F /  9.9 °C 29.8in /  1009.0hPa WSW 13.6mph /  21.9km/h 23.9mph /  38.5km/h 96% 0in /  0.0mm
22:57 50.9 °F /  10.5 °C 49.8 °F /  9.9 °C 29.8in /  1009.0hPa WSW 20.6mph /  33.1km/h 25.5mph /  41.0km/h 96% 0in /  0.0mm
23:02 50.9 °F /  10.5 °C 49.8 °F /  9.9 °C 29.8in /  1009.0hPa West 11.4mph /  18.3km/h 25.5mph /  41.0km/h 96% 0in /  0.0mm
23:07 50.9 °F /  10.5 °C 49.8 °F /  9.9 °C 29.8in /  1008.0hPa WSW 26.6mph /  42.8km/h 32.2mph /  51.8km/h 96% 0in /  0.0mm
23:12 50.7 °F /  10.4 °C 49.6 °F /  9.8 °C 29.8in /  1008.0hPa WSW 17.7mph /  28.5km/h 32.2mph /  51.8km/h 96% 0in /  0.0mm
23:17 50.7 °F /  10.4 °C 49.6 °F /  9.8 °C 29.8in /  1008.0hPa WSW 17.7mph /  28.5km/h 29.3mph /  47.1km/h 96% 0in /  0.0mm
23:22 50.7 °F /  10.4 °C 49.6 °F /  9.8 °C 29.8in /  1008.0hPa WSW 28mph /  45.1km/h 28mph /  45.1km/h 96% 0in /  0.0mm
23:27 50.7 °F /  10.4 °C 49.6 °F /  9.8 °C 29.8in /  1008.0hPa WSW 23.3mph /  37.5km/h 28mph /  45.1km/h 96% 0in /  0.0mm
23:32 50.7 °F /  10.4 °C 49.6 °F /  9.8 °C 29.8in /  1008.0hPa SW 16.3mph /  26.2km/h 26.6mph /  42.8km/h 96% 0in /  0.0mm
23:37 50.5 °F /  10.3 °C 49.5 °F /  9.7 °C 29.8in /  1008.0hPa WSW 17.7mph /  28.5km/h 23.9mph /  38.5km/h 96% 0in /  0.0mm
23:39 50.5 °F /  10.3 °C 49.5 °F /  9.7 °C 29.8in /  1008.0hPa West 13.2mph /  21.2km/h 24.4mph /  39.3km/h 96% 0in /  0.0mm
23:44 50.5 °F /  10.3 °C 49.5 °F /  9.7 °C 29.8in /  1008.0hPa WSW 22.1mph /  35.6km/h 24.4mph /  39.3km/h 96% 0in /  0.0mm
23:49 50.5 °F /  10.3 °C 49.5 °F /  9.7 °C 29.8in /  1008.0hPa WSW 23.3mph /  37.5km/h 25.1mph /  40.4km/h 96% 0in /  0.0mm
23:54 50.5 °F /  10.3 °C 49.5 °F /  9.7 °C 29.7in /  1007.0hPa West 15.7mph /  25.3km/h 26.2mph /  42.2km/h 96% 0in /  0.0mm
23:59 50.5 °F /  10.3 °C 49.5 °F /  9.7 °C 29.7in /  1007.0hPa WSW 15.4mph /  24.8km/h 28mph /  45.1km/h 96% 0in /  0.0mm
Données Historique de Météo Turbie

Mise a jour : 22/05/2018 19:52:12
Généré par Cumulus 1.9.4 (1099)